sensor_id;sensor_type;location;lat;lon;timestamp;P1;durP1;ratioP1;P2;durP2;ratioP2
80225;SDS011;69538;42.000;21.452;2023-07-20T00:00:17;26.00;;;6.25;;
80225;SDS011;69538;42.000;21.452;2023-07-20T00:02:43;18.80;;;5.78;;
80225;SDS011;69538;42.000;21.452;2023-07-20T00:05:09;23.45;;;6.93;;
80225;SDS011;69538;42.000;21.452;2023-07-20T00:07:35;18.05;;;6.38;;
80225;SDS011;69538;42.000;21.452;2023-07-20T00:10:02;13.23;;;5.78;;
80225;SDS011;69538;42.000;21.452;2023-07-20T00:12:28;17.48;;;5.70;;
80225;SDS011;69538;42.000;21.452;2023-07-20T00:14:54;21.50;;;6.82;;
80225;SDS011;69538;42.000;21.452;2023-07-20T00:17:20;20.48;;;5.70;;
80225;SDS011;69538;42.000;21.452;2023-07-20T00:19:47;20.30;;;6.32;;
80225;SDS011;69538;42.000;21.452;2023-07-20T00:22:13;21.95;;;6.72;;
80225;SDS011;69538;42.000;21.452;2023-07-20T00:24:39;16.15;;;5.88;;
80225;SDS011;69538;42.000;21.452;2023-07-20T00:27:05;17.67;;;6.13;;
80225;SDS011;69538;42.000;21.452;2023-07-20T00:29:32;24.08;;;6.35;;
80225;SDS011;69538;42.000;21.452;2023-07-20T00:31:58;23.65;;;5.85;;
80225;SDS011;69538;42.000;21.452;2023-07-20T00:34:24;21.52;;;6.60;;
80225;SDS011;69538;42.000;21.452;2023-07-20T00:36:50;19.40;;;6.65;;
80225;SDS011;69538;42.000;21.452;2023-07-20T00:39:16;19.30;;;6.90;;
80225;SDS011;69538;42.000;21.452;2023-07-20T00:41:43;19.67;;;5.80;;
80225;SDS011;69538;42.000;21.452;2023-07-20T00:44:09;21.25;;;6.88;;
80225;SDS011;69538;42.000;21.452;2023-07-20T00:46:35;19.63;;;6.70;;
80225;SDS011;69538;42.000;21.452;2023-07-20T00:49:01;19.80;;;6.53;;
80225;SDS011;69538;42.000;21.452;2023-07-20T00:51:27;24.25;;;7.10;;
80225;SDS011;69538;42.000;21.452;2023-07-20T00:53:54;21.02;;;6.93;;
80225;SDS011;69538;42.000;21.452;2023-07-20T00:56:20;18.80;;;7.18;;
80225;SDS011;69538;42.000;21.452;2023-07-20T00:58:47;16.95;;;6.40;;
80225;SDS011;69538;42.000;21.452;2023-07-20T01:01:14;17.52;;;6.28;;
80225;SDS011;69538;42.000;21.452;2023-07-20T01:03:40;24.88;;;6.97;;
80225;SDS011;69538;42.000;21.452;2023-07-20T01:06:09;21.52;;;6.03;;
80225;SDS011;69538;42.000;21.452;2023-07-20T01:08:40;16.88;;;6.97;;
80225;SDS011;69538;42.000;21.452;2023-07-20T01:11:56;19.65;;;5.78;;
80225;SDS011;69538;42.000;21.452;2023-07-20T01:13:55;20.00;;;6.22;;
80225;SDS011;69538;42.000;21.452;2023-07-20T01:16:22;25.83;;;5.78;;
80225;SDS011;69538;42.000;21.452;2023-07-20T01:18:48;22.52;;;5.40;;
80225;SDS011;69538;42.000;21.452;2023-07-20T01:21:17;19.63;;;5.60;;
80225;SDS011;69538;42.000;21.452;2023-07-20T01:29:02;24.67;;;6.13;;
80225;SDS011;69538;42.000;21.452;2023-07-20T01:31:34;15.55;;;5.32;;
80225;SDS011;69538;42.000;21.452;2023-07-20T01:36:30;17.45;;;4.90;;
80225;SDS011;69538;42.000;21.452;2023-07-20T01:38:58;16.25;;;5.45;;
80225;SDS011;69538;42.000;21.452;2023-07-20T01:41:25;14.32;;;5.72;;
80225;SDS011;69538;42.000;21.452;2023-07-20T01:43:51;15.20;;;5.40;;
80225;SDS011;69538;42.000;21.452;2023-07-20T01:46:17;15.82;;;5.60;;
80225;SDS011;69538;42.000;21.452;2023-07-20T01:48:43;25.65;;;5.60;;
80225;SDS011;69538;42.000;21.452;2023-07-20T01:51:10;14.35;;;5.97;;
80225;SDS011;69538;42.000;21.452;2023-07-20T01:53:37;15.15;;;4.80;;
80225;SDS011;69538;42.000;21.452;2023-07-20T01:56:03;16.60;;;5.13;;
80225;SDS011;69538;42.000;21.452;2023-07-20T01:58:29;14.20;;;5.05;;
80225;SDS011;69538;42.000;21.452;2023-07-20T02:00:55;22.63;;;5.38;;
80225;SDS011;69538;42.000;21.452;2023-07-20T02:03:21;11.98;;;4.53;;
80225;SDS011;69538;42.000;21.452;2023-07-20T02:05:50;16.92;;;5.68;;
80225;SDS011;69538;42.000;21.452;2023-07-20T02:08:17;16.63;;;5.78;;
80225;SDS011;69538;42.000;21.452;2023-07-20T02:10:45;18.85;;;5.70;;
80225;SDS011;69538;42.000;21.452;2023-07-20T02:15:37;20.10;;;5.97;;
80225;SDS011;69538;42.000;21.452;2023-07-20T02:18:03;21.50;;;6.32;;
80225;SDS011;69538;42.000;21.452;2023-07-20T02:20:29;19.55;;;4.97;;
80225;SDS011;69538;42.000;21.452;2023-07-20T02:22:55;18.40;;;5.72;;
80225;SDS011;69538;42.000;21.452;2023-07-20T02:25:22;15.95;;;4.72;;
80225;SDS011;69538;42.000;21.452;2023-07-20T02:27:48;16.60;;;5.35;;
80225;SDS011;69538;42.000;21.452;2023-07-20T02:30:14;13.65;;;6.20;;
80225;SDS011;69538;42.000;21.452;2023-07-20T02:32:42;19.45;;;6.05;;
80225;SDS011;69538;42.000;21.452;2023-07-20T02:35:13;26.33;;;6.85;;
80225;SDS011;69538;42.000;21.452;2023-07-20T02:37:40;25.55;;;9.38;;
80225;SDS011;69538;42.000;21.452;2023-07-20T02:40:06;25.10;;;9.00;;
80225;SDS011;69538;42.000;21.452;2023-07-20T02:42:33;23.48;;;8.40;;
80225;SDS011;69538;42.000;21.452;2023-07-20T02:44:59;36.00;;;12.77;;
80225;SDS011;69538;42.000;21.452;2023-07-20T02:47:25;28.05;;;12.88;;
80225;SDS011;69538;42.000;21.452;2023-07-20T02:49:51;29.10;;;12.25;;
80225;SDS011;69538;42.000;21.452;2023-07-20T02:52:17;29.02;;;12.13;;
80225;SDS011;69538;42.000;21.452;2023-07-20T02:54:43;26.83;;;10.00;;
80225;SDS011;69538;42.000;21.452;2023-07-20T02:57:09;20.30;;;8.02;;
80225;SDS011;69538;42.000;21.452;2023-07-20T02:59:36;22.15;;;7.75;;
80225;SDS011;69538;42.000;21.452;2023-07-20T03:02:02;18.52;;;7.65;;
80225;SDS011;69538;42.000;21.452;2023-07-20T03:04:28;24.65;;;8.10;;
80225;SDS011;69538;42.000;21.452;2023-07-20T03:06:54;25.73;;;8.27;;
80225;SDS011;69538;42.000;21.452;2023-07-20T03:09:20;21.50;;;8.10;;
80225;SDS011;69538;42.000;21.452;2023-07-20T03:11:47;16.77;;;8.27;;
80225;SDS011;69538;42.000;21.452;2023-07-20T03:14:13;20.85;;;8.95;;
80225;SDS011;69538;42.000;21.452;2023-07-20T03:16:39;20.38;;;9.00;;
80225;SDS011;69538;42.000;21.452;2023-07-20T03:19:05;23.58;;;9.85;;
80225;SDS011;69538;42.000;21.452;2023-07-20T03:21:31;22.90;;;9.68;;
80225;SDS011;69538;42.000;21.452;2023-07-20T03:23:57;20.50;;;8.63;;
80225;SDS011;69538;42.000;21.452;2023-07-20T03:26:24;20.85;;;8.52;;
80225;SDS011;69538;42.000;21.452;2023-07-20T03:28:50;24.88;;;8.30;;
80225;SDS011;69538;42.000;21.452;2023-07-20T03:31:16;15.98;;;7.93;;
80225;SDS011;69538;42.000;21.452;2023-07-20T03:33:42;24.10;;;8.50;;
80225;SDS011;69538;42.000;21.452;2023-07-20T03:36:08;20.33;;;7.63;;
80225;SDS011;69538;42.000;21.452;2023-07-20T03:38:35;19.73;;;8.27;;
80225;SDS011;69538;42.000;21.452;2023-07-20T03:41:01;21.35;;;8.13;;
80225;SDS011;69538;42.000;21.452;2023-07-20T03:43:27;23.35;;;7.97;;
80225;SDS011;69538;42.000;21.452;2023-07-20T03:45:54;15.90;;;7.93;;
80225;SDS011;69538;42.000;21.452;2023-07-20T03:48:22;21.45;;;7.40;;
80225;SDS011;69538;42.000;21.452;2023-07-20T03:50:49;19.60;;;8.25;;
80225;SDS011;69538;42.000;21.452;2023-07-20T03:53:16;18.48;;;7.97;;
80225;SDS011;69538;42.000;21.452;2023-07-20T03:55:49;15.65;;;8.00;;
80225;SDS011;69538;42.000;21.452;2023-07-20T03:58:15;19.25;;;7.32;;
80225;SDS011;69538;42.000;21.452;2023-07-20T04:00:45;16.90;;;7.82;;
80225;SDS011;69538;42.000;21.452;2023-07-20T04:03:12;21.50;;;7.85;;
80225;SDS011;69538;42.000;21.452;2023-07-20T04:05:38;22.65;;;8.18;;
80225;SDS011;69538;42.000;21.452;2023-07-20T04:08:04;16.52;;;7.47;;
80225;SDS011;69538;42.000;21.452;2023-07-20T04:10:30;20.23;;;7.40;;
80225;SDS011;69538;42.000;21.452;2023-07-20T04:12:56;15.40;;;7.43;;
80225;SDS011;69538;42.000;21.452;2023-07-20T04:15:23;19.73;;;6.85;;
80225;SDS011;69538;42.000;21.452;2023-07-20T04:17:49;18.27;;;6.55;;
80225;SDS011;69538;42.000;21.452;2023-07-20T04:20:15;18.92;;;7.38;;
80225;SDS011;69538;42.000;21.452;2023-07-20T04:22:43;13.98;;;6.15;;
80225;SDS011;69538;42.000;21.452;2023-07-20T04:25:09;28.10;;;7.65;;
80225;SDS011;69538;42.000;21.452;2023-07-20T04:27:36;22.30;;;7.07;;
80225;SDS011;69538;42.000;21.452;2023-07-20T04:30:02;20.83;;;6.90;;
80225;SDS011;69538;42.000;21.452;2023-07-20T04:32:28;18.35;;;6.20;;
80225;SDS011;69538;42.000;21.452;2023-07-20T04:34:55;24.15;;;6.63;;
80225;SDS011;69538;42.000;21.452;2023-07-20T04:37:21;21.00;;;7.10;;
80225;SDS011;69538;42.000;21.452;2023-07-20T04:39:48;27.35;;;7.72;;
80225;SDS011;69538;42.000;21.452;2023-07-20T04:42:14;20.50;;;7.32;;
80225;SDS011;69538;42.000;21.452;2023-07-20T04:44:41;23.20;;;8.35;;
80225;SDS011;69538;42.000;21.452;2023-07-20T04:47:07;42.00;;;8.38;;
80225;SDS011;69538;42.000;21.452;2023-07-20T04:49:33;29.55;;;10.55;;
80225;SDS011;69538;42.000;21.452;2023-07-20T04:52:00;35.17;;;11.73;;
80225;SDS011;69538;42.000;21.452;2023-07-20T04:54:27;30.02;;;11.48;;
80225;SDS011;69538;42.000;21.452;2023-07-20T04:56:53;28.58;;;12.15;;
80225;SDS011;69538;42.000;21.452;2023-07-20T04:59:20;25.35;;;12.13;;
80225;SDS011;69538;42.000;21.452;2023-07-20T05:01:46;41.50;;;12.30;;
80225;SDS011;69538;42.000;21.452;2023-07-20T05:04:12;30.23;;;13.02;;
80225;SDS011;69538;42.000;21.452;2023-07-20T05:06:38;23.90;;;10.07;;
80225;SDS011;69538;42.000;21.452;2023-07-20T05:09:04;22.92;;;9.43;;
80225;SDS011;69538;42.000;21.452;2023-07-20T05:11:32;23.13;;;9.15;;
80225;SDS011;69538;42.000;21.452;2023-07-20T05:13:59;28.83;;;9.27;;
80225;SDS011;69538;42.000;21.452;2023-07-20T05:16:25;19.90;;;9.45;;
80225;SDS011;69538;42.000;21.452;2023-07-20T05:18:51;22.85;;;11.93;;
80225;SDS011;69538;42.000;21.452;2023-07-20T05:21:17;27.70;;;9.27;;
80225;SDS011;69538;42.000;21.452;2023-07-20T05:23:44;20.08;;;8.93;;
80225;SDS011;69538;42.000;21.452;2023-07-20T05:26:10;41.55;;;9.90;;
80225;SDS011;69538;42.000;21.452;2023-07-20T05:28:36;21.48;;;8.48;;
80225;SDS011;69538;42.000;21.452;2023-07-20T05:31:02;26.38;;;10.00;;
80225;SDS011;69538;42.000;21.452;2023-07-20T05:33:29;25.33;;;10.13;;
80225;SDS011;69538;42.000;21.452;2023-07-20T05:35:55;22.30;;;10.23;;
80225;SDS011;69538;42.000;21.452;2023-07-20T05:38:21;25.50;;;10.70;;
80225;SDS011;69538;42.000;21.452;2023-07-20T05:40:48;26.50;;;10.63;;
80225;SDS011;69538;42.000;21.452;2023-07-20T05:43:14;25.15;;;10.82;;
80225;SDS011;69538;42.000;21.452;2023-07-20T05:45:43;27.15;;;10.93;;
80225;SDS011;69538;42.000;21.452;2023-07-20T05:48:12;23.63;;;9.82;;
80225;SDS011;69538;42.000;21.452;2023-07-20T05:50:42;27.15;;;11.65;;
80225;SDS011;69538;42.000;21.452;2023-07-20T05:53:08;19.17;;;9.98;;
80225;SDS011;69538;42.000;21.452;2023-07-20T05:55:35;22.38;;;10.93;;
80225;SDS011;69538;42.000;21.452;2023-07-20T05:58:01;25.05;;;10.50;;
80225;SDS011;69538;42.000;21.452;2023-07-20T06:00:29;27.73;;;11.18;;
80225;SDS011;69538;42.000;21.452;2023-07-20T06:02:55;34.10;;;12.45;;
80225;SDS011;69538;42.000;21.452;2023-07-20T06:05:22;32.58;;;12.75;;
80225;SDS011;69538;42.000;21.452;2023-07-20T06:07:49;35.92;;;13.55;;
80225;SDS011;69538;42.000;21.452;2023-07-20T06:10:15;31.90;;;13.93;;
80225;SDS011;69538;42.000;21.452;2023-07-20T06:12:41;32.45;;;14.50;;
80225;SDS011;69538;42.000;21.452;2023-07-20T06:15:23;34.75;;;15.75;;
80225;SDS011;69538;42.000;21.452;2023-07-20T06:17:50;40.55;;;17.83;;
80225;SDS011;69538;42.000;21.452;2023-07-20T06:20:17;36.85;;;17.10;;
80225;SDS011;69538;42.000;21.452;2023-07-20T06:22:44;41.90;;;16.77;;
80225;SDS011;69538;42.000;21.452;2023-07-20T06:25:13;34.75;;;17.35;;
80225;SDS011;69538;42.000;21.452;2023-07-20T06:27:40;42.10;;;16.33;;
80225;SDS011;69538;42.000;21.452;2023-07-20T06:30:06;36.63;;;16.00;;
80225;SDS011;69538;42.000;21.452;2023-07-20T06:32:32;37.40;;;17.63;;
80225;SDS011;69538;42.000;21.452;2023-07-20T06:34:58;35.90;;;16.33;;
80225;SDS011;69538;42.000;21.452;2023-07-20T06:37:25;39.47;;;16.52;;
80225;SDS011;69538;42.000;21.452;2023-07-20T06:39:51;42.25;;;18.35;;
80225;SDS011;69538;42.000;21.452;2023-07-20T06:42:17;38.38;;;16.77;;
80225;SDS011;69538;42.000;21.452;2023-07-20T06:44:43;42.28;;;16.92;;
80225;SDS011;69538;42.000;21.452;2023-07-20T06:47:10;40.53;;;17.02;;
80225;SDS011;69538;42.000;21.452;2023-07-20T06:49:37;36.15;;;15.50;;
80225;SDS011;69538;42.000;21.452;2023-07-20T06:52:03;40.05;;;15.48;;
80225;SDS011;69538;42.000;21.452;2023-07-20T06:54:30;41.53;;;15.27;;
80225;SDS011;69538;42.000;21.452;2023-07-20T06:56:56;34.03;;;12.88;;
80225;SDS011;69538;42.000;21.452;2023-07-20T06:59:22;36.83;;;14.15;;
80225;SDS011;69538;42.000;21.452;2023-07-20T07:01:49;41.40;;;15.70;;
80225;SDS011;69538;42.000;21.452;2023-07-20T07:04:15;45.30;;;16.15;;
80225;SDS011;69538;42.000;21.452;2023-07-20T07:06:41;41.92;;;17.83;;
80225;SDS011;69538;42.000;21.452;2023-07-20T07:09:08;47.40;;;13.15;;
80225;SDS011;69538;42.000;21.452;2023-07-20T07:11:34;38.85;;;14.45;;
80225;SDS011;69538;42.000;21.452;2023-07-20T07:14:00;37.70;;;13.95;;
80225;SDS011;69538;42.000;21.452;2023-07-20T07:16:27;37.45;;;14.32;;
80225;SDS011;69538;42.000;21.452;2023-07-20T07:18:53;36.17;;;11.30;;
80225;SDS011;69538;42.000;21.452;2023-07-20T07:21:20;41.75;;;12.85;;
80225;SDS011;69538;42.000;21.452;2023-07-20T07:23:46;29.58;;;10.55;;
80225;SDS011;69538;42.000;21.452;2023-07-20T07:26:13;18.67;;;8.13;;
80225;SDS011;69538;42.000;21.452;2023-07-20T07:28:39;20.83;;;8.40;;
80225;SDS011;69538;42.000;21.452;2023-07-20T07:31:05;16.50;;;7.68;;
80225;SDS011;69538;42.000;21.452;2023-07-20T07:33:32;31.77;;;8.50;;
80225;SDS011;69538;42.000;21.452;2023-07-20T07:35:58;17.65;;;7.03;;
80225;SDS011;69538;42.000;21.452;2023-07-20T07:38:24;25.58;;;7.65;;
80225;SDS011;69538;42.000;21.452;2023-07-20T07:40:50;15.48;;;6.38;;
80225;SDS011;69538;42.000;21.452;2023-07-20T07:43:16;16.95;;;7.20;;
80225;SDS011;69538;42.000;21.452;2023-07-20T07:45:43;14.85;;;6.57;;
80225;SDS011;69538;42.000;21.452;2023-07-20T07:48:09;16.65;;;6.30;;
80225;SDS011;69538;42.000;21.452;2023-07-20T07:50:39;19.83;;;9.82;;
80225;SDS011;69538;42.000;21.452;2023-07-20T07:53:05;15.93;;;6.55;;
80225;SDS011;69538;42.000;21.452;2023-07-20T07:55:32;18.73;;;6.90;;
80225;SDS011;69538;42.000;21.452;2023-07-20T07:57:58;17.35;;;6.53;;
80225;SDS011;69538;42.000;21.452;2023-07-20T08:00:26;21.45;;;7.07;;
80225;SDS011;69538;42.000;21.452;2023-07-20T08:02:52;22.70;;;7.20;;
80225;SDS011;69538;42.000;21.452;2023-07-20T08:05:19;16.42;;;6.18;;
80225;SDS011;69538;42.000;21.452;2023-07-20T08:07:45;17.40;;;7.15;;
80225;SDS011;69538;42.000;21.452;2023-07-20T08:10:11;13.10;;;6.18;;
80225;SDS011;69538;42.000;21.452;2023-07-20T08:12:37;20.02;;;6.55;;
80225;SDS011;69538;42.000;21.452;2023-07-20T08:15:04;20.63;;;8.40;;
80225;SDS011;69538;42.000;21.452;2023-07-20T08:17:32;16.77;;;8.45;;
80225;SDS011;69538;42.000;21.452;2023-07-20T08:19:58;16.23;;;6.32;;
80225;SDS011;69538;42.000;21.452;2023-07-20T08:22:25;20.17;;;7.05;;
80225;SDS011;69538;42.000;21.452;2023-07-20T08:24:51;19.98;;;7.18;;
80225;SDS011;69538;42.000;21.452;2023-07-20T08:27:17;16.60;;;7.00;;
80225;SDS011;69538;42.000;21.452;2023-07-20T08:29:44;14.45;;;7.13;;
80225;SDS011;69538;42.000;21.452;2023-07-20T08:32:10;18.73;;;6.97;;
80225;SDS011;69538;42.000;21.452;2023-07-20T08:34:43;17.90;;;7.05;;
80225;SDS011;69538;42.000;21.452;2023-07-20T08:37:09;19.80;;;7.93;;
80225;SDS011;69538;42.000;21.452;2023-07-20T08:39:35;15.27;;;6.97;;
80225;SDS011;69538;42.000;21.452;2023-07-20T08:42:03;31.10;;;13.45;;
80225;SDS011;69538;42.000;21.452;2023-07-20T08:44:34;19.27;;;8.07;;
80225;SDS011;69538;42.000;21.452;2023-07-20T08:47:01;24.73;;;7.82;;
80225;SDS011;69538;42.000;21.452;2023-07-20T08:49:29;23.08;;;9.88;;
80225;SDS011;69538;42.000;21.452;2023-07-20T08:51:55;19.40;;;7.70;;
80225;SDS011;69538;42.000;21.452;2023-07-20T08:54:21;17.70;;;7.45;;
80225;SDS011;69538;42.000;21.452;2023-07-20T08:56:48;15.23;;;6.07;;
80225;SDS011;69538;42.000;21.452;2023-07-20T08:59:15;19.98;;;6.93;;
80225;SDS011;69538;42.000;21.452;2023-07-20T09:01:44;21.15;;;7.72;;
80225;SDS011;69538;42.000;21.452;2023-07-20T09:04:11;19.52;;;8.40;;
80225;SDS011;69538;42.000;21.452;2023-07-20T09:06:37;19.33;;;7.55;;
80225;SDS011;69538;42.000;21.452;2023-07-20T09:09:06;15.55;;;6.85;;
80225;SDS011;69538;42.000;21.452;2023-07-20T09:11:32;16.38;;;7.75;;
80225;SDS011;69538;42.000;21.452;2023-07-20T09:14:08;19.27;;;11.23;;
80225;SDS011;69538;42.000;21.452;2023-07-20T09:22:37;17.17;;;6.75;;
80225;SDS011;69538;42.000;21.452;2023-07-20T09:25:11;16.00;;;6.57;;
80225;SDS011;69538;42.000;21.452;2023-07-20T09:27:42;17.58;;;6.45;;
80225;SDS011;69538;42.000;21.452;2023-07-20T09:30:09;13.18;;;5.53;;
80225;SDS011;69538;42.000;21.452;2023-07-20T09:32:50;13.35;;;6.93;;
80225;SDS011;69538;42.000;21.452;2023-07-20T09:35:18;17.05;;;6.28;;
80225;SDS011;69538;42.000;21.452;2023-07-20T09:40:16;13.52;;;5.80;;
80225;SDS011;69538;42.000;21.452;2023-07-20T09:42:43;10.77;;;5.82;;
80225;SDS011;69538;42.000;21.452;2023-07-20T09:45:10;14.50;;;7.43;;
80225;SDS011;69538;42.000;21.452;2023-07-20T09:47:37;15.60;;;6.18;;
80225;SDS011;69538;42.000;21.452;2023-07-20T09:50:05;19.20;;;6.65;;
80225;SDS011;69538;42.000;21.452;2023-07-20T09:52:39;16.42;;;5.70;;
80225;SDS011;69538;42.000;21.452;2023-07-20T09:55:09;21.85;;;6.88;;
80225;SDS011;69538;42.000;21.452;2023-07-20T09:57:37;15.27;;;5.95;;
80225;SDS011;69538;42.000;21.452;2023-07-20T10:00:05;17.52;;;7.15;;
80225;SDS011;69538;42.000;21.452;2023-07-20T10:02:43;11.60;;;5.55;;
80225;SDS011;69538;42.000;21.452;2023-07-20T10:05:13;12.50;;;6.68;;
80225;SDS011;69538;42.000;21.452;2023-07-20T10:07:43;20.77;;;7.15;;
80225;SDS011;69538;42.000;21.452;2023-07-20T10:10:11;16.95;;;9.77;;
80225;SDS011;69538;42.000;21.452;2023-07-20T10:12:40;18.02;;;7.28;;
80225;SDS011;69538;42.000;21.452;2023-07-20T10:17:35;14.63;;;6.93;;
80225;SDS011;69538;42.000;21.452;2023-07-20T10:20:03;14.20;;;7.10;;
80225;SDS011;69538;42.000;21.452;2023-07-20T10:22:34;13.30;;;5.70;;
80225;SDS011;69538;42.000;21.452;2023-07-20T10:25:02;15.98;;;8.20;;
80225;SDS011;69538;42.000;21.452;2023-07-20T10:27:30;17.90;;;7.05;;
80225;SDS011;69538;42.000;21.452;2023-07-20T10:30:00;11.30;;;5.88;;
80225;SDS011;69538;42.000;21.452;2023-07-20T10:32:50;16.75;;;5.65;;
80225;SDS011;69538;42.000;21.452;2023-07-20T10:35:18;16.00;;;6.25;;
80225;SDS011;69538;42.000;21.452;2023-07-20T10:42:55;14.55;;;6.32;;
80225;SDS011;69538;42.000;21.452;2023-07-20T10:45:32;16.15;;;7.57;;
80225;SDS011;69538;42.000;21.452;2023-07-20T10:48:02;15.50;;;7.05;;
80225;SDS011;69538;42.000;21.452;2023-07-20T10:50:30;19.95;;;10.65;;
80225;SDS011;69538;42.000;21.452;2023-07-20T10:53:13;15.73;;;7.25;;
80225;SDS011;69538;42.000;21.452;2023-07-20T10:55:41;17.90;;;6.65;;
80225;SDS011;69538;42.000;21.452;2023-07-20T10:58:13;21.33;;;6.55;;
80225;SDS011;69538;42.000;21.452;2023-07-20T11:01:02;11.68;;;6.53;;
80225;SDS011;69538;42.000;21.452;2023-07-20T11:03:29;13.65;;;6.03;;
80225;SDS011;69538;42.000;21.452;2023-07-20T11:05:57;14.40;;;7.53;;
80225;SDS011;69538;42.000;21.452;2023-07-20T11:08:40;16.80;;;7.32;;
80225;SDS011;69538;42.000;21.452;2023-07-20T11:13:56;17.27;;;7.05;;
80225;SDS011;69538;42.000;21.452;2023-07-20T11:16:39;18.63;;;7.13;;
80225;SDS011;69538;42.000;21.452;2023-07-20T11:19:10;18.50;;;8.80;;
80225;SDS011;69538;42.000;21.452;2023-07-20T11:21:43;19.50;;;8.57;;
80225;SDS011;69538;42.000;21.452;2023-07-20T11:24:13;13.00;;;6.35;;
80225;SDS011;69538;42.000;21.452;2023-07-20T11:34:53;14.40;;;6.97;;
80225;SDS011;69538;42.000;21.452;2023-07-20T11:37:20;15.88;;;6.60;;
80225;SDS011;69538;42.000;21.452;2023-07-20T11:39:54;18.58;;;10.05;;
80225;SDS011;69538;42.000;21.452;2023-07-20T11:42:21;16.15;;;6.55;;
80225;SDS011;69538;42.000;21.452;2023-07-20T11:44:51;14.68;;;7.68;;
80225;SDS011;69538;42.000;21.452;2023-07-20T11:47:17;14.57;;;6.32;;
80225;SDS011;69538;42.000;21.452;2023-07-20T11:49:44;14.18;;;6.07;;
80225;SDS011;69538;42.000;21.452;2023-07-20T11:52:15;19.35;;;6.65;;
80225;SDS011;69538;42.000;21.452;2023-07-20T11:54:42;15.93;;;6.38;;
80225;SDS011;69538;42.000;21.452;2023-07-20T11:57:22;20.38;;;7.38;;
80225;SDS011;69538;42.000;21.452;2023-07-20T11:59:58;13.70;;;6.93;;
80225;SDS011;69538;42.000;21.452;2023-07-20T12:02:30;14.88;;;6.97;;
80225;SDS011;69538;42.000;21.452;2023-07-20T12:04:57;16.30;;;11.15;;
80225;SDS011;69538;42.000;21.452;2023-07-20T12:07:25;12.25;;;6.50;;
80225;SDS011;69538;42.000;21.452;2023-07-20T12:10:07;16.73;;;6.40;;
80225;SDS011;69538;42.000;21.452;2023-07-20T12:12:38;12.93;;;6.25;;
80225;SDS011;69538;42.000;21.452;2023-07-20T12:15:25;16.83;;;6.07;;
80225;SDS011;69538;42.000;21.452;2023-07-20T12:17:52;15.20;;;6.78;;
80225;SDS011;69538;42.000;21.452;2023-07-20T12:20:32;14.10;;;6.40;;
80225;SDS011;69538;42.000;21.452;2023-07-20T12:23:04;15.57;;;6.90;;
80225;SDS011;69538;42.000;21.452;2023-07-20T12:28:02;19.08;;;6.72;;
80225;SDS011;69538;42.000;21.452;2023-07-20T12:30:31;19.40;;;7.53;;
80225;SDS011;69538;42.000;21.452;2023-07-20T12:33:01;15.57;;;6.43;;
80225;SDS011;69538;42.000;21.452;2023-07-20T12:35:29;17.48;;;6.65;;
80225;SDS011;69538;42.000;21.452;2023-07-20T12:37:56;14.75;;;6.45;;
80225;SDS011;69538;42.000;21.452;2023-07-20T12:40:23;14.77;;;6.97;;
80225;SDS011;69538;42.000;21.452;2023-07-20T12:42:50;14.63;;;6.88;;
80225;SDS011;69538;42.000;21.452;2023-07-20T12:45:17;17.80;;;6.00;;
80225;SDS011;69538;42.000;21.452;2023-07-20T12:47:43;12.85;;;5.93;;
80225;SDS011;69538;42.000;21.452;2023-07-20T12:50:10;17.30;;;6.28;;
80225;SDS011;69538;42.000;21.452;2023-07-20T12:52:38;24.77;;;7.82;;
80225;SDS011;69538;42.000;21.452;2023-07-20T12:57:31;9.70;;;4.88;;
80225;SDS011;69538;42.000;21.452;2023-07-20T12:59:58;13.18;;;6.38;;
80225;SDS011;69538;42.000;21.452;2023-07-20T13:02:29;16.15;;;6.03;;
80225;SDS011;69538;42.000;21.452;2023-07-20T13:04:56;15.27;;;7.40;;
80225;SDS011;69538;42.000;21.452;2023-07-20T13:07:35;15.85;;;7.10;;
80225;SDS011;69538;42.000;21.452;2023-07-20T13:10:03;18.58;;;7.07;;
80225;SDS011;69538;42.000;21.452;2023-07-20T13:12:30;17.02;;;7.82;;
80225;SDS011;69538;42.000;21.452;2023-07-20T13:14:57;20.00;;;6.60;;
80225;SDS011;69538;42.000;21.452;2023-07-20T13:17:28;18.92;;;8.02;;
80225;SDS011;69538;42.000;21.452;2023-07-20T13:19:55;13.20;;;8.23;;
80225;SDS011;69538;42.000;21.452;2023-07-20T13:22:21;17.50;;;7.47;;
80225;SDS011;69538;42.000;21.452;2023-07-20T13:24:48;23.58;;;7.38;;
80225;SDS011;69538;42.000;21.452;2023-07-20T13:27:15;15.93;;;6.97;;
80225;SDS011;69538;42.000;21.452;2023-07-20T13:29:42;16.10;;;6.40;;
80225;SDS011;69538;42.000;21.452;2023-07-20T13:32:09;19.63;;;7.18;;
80225;SDS011;69538;42.000;21.452;2023-07-20T13:34:35;13.73;;;6.70;;
80225;SDS011;69538;42.000;21.452;2023-07-20T13:37:01;17.80;;;7.13;;
80225;SDS011;69538;42.000;21.452;2023-07-20T13:39:28;18.98;;;6.88;;
80225;SDS011;69538;42.000;21.452;2023-07-20T13:41:54;14.52;;;6.40;;
80225;SDS011;69538;42.000;21.452;2023-07-20T13:44:20;21.30;;;7.78;;
80225;SDS011;69538;42.000;21.452;2023-07-20T13:46:47;17.08;;;6.75;;
80225;SDS011;69538;42.000;21.452;2023-07-20T13:49:13;13.25;;;6.20;;
80225;SDS011;69538;42.000;21.452;2023-07-20T13:51:41;15.27;;;7.35;;
80225;SDS011;69538;42.000;21.452;2023-07-20T13:54:07;17.48;;;6.80;;
80225;SDS011;69538;42.000;21.452;2023-07-20T13:56:33;10.75;;;6.18;;
80225;SDS011;69538;42.000;21.452;2023-07-20T13:58:59;18.02;;;8.93;;
80225;SDS011;69538;42.000;21.452;2023-07-20T14:01:26;13.82;;;6.60;;
80225;SDS011;69538;42.000;21.452;2023-07-20T14:03:53;18.35;;;7.32;;
80225;SDS011;69538;42.000;21.452;2023-07-20T14:06:20;13.77;;;8.05;;
80225;SDS011;69538;42.000;21.452;2023-07-20T14:08:46;16.60;;;7.68;;
80225;SDS011;69538;42.000;21.452;2023-07-20T14:13:39;17.08;;;7.55;;
80225;SDS011;69538;42.000;21.452;2023-07-20T14:16:06;14.68;;;6.90;;
80225;SDS011;69538;42.000;21.452;2023-07-20T14:18:33;13.63;;;6.75;;
80225;SDS011;69538;42.000;21.452;2023-07-20T14:20:59;18.73;;;6.30;;
80225;SDS011;69538;42.000;21.452;2023-07-20T14:23:28;16.58;;;7.25;;
80225;SDS011;69538;42.000;21.452;2023-07-20T14:25:54;17.75;;;6.10;;
80225;SDS011;69538;42.000;21.452;2023-07-20T14:28:20;14.50;;;6.88;;
80225;SDS011;69538;42.000;21.452;2023-07-20T14:30:46;13.93;;;7.65;;
80225;SDS011;69538;42.000;21.452;2023-07-20T14:33:12;15.60;;;6.97;;
80225;SDS011;69538;42.000;21.452;2023-07-20T14:35:39;14.95;;;6.95;;
80225;SDS011;69538;42.000;21.452;2023-07-20T14:38:05;13.43;;;6.80;;
80225;SDS011;69538;42.000;21.452;2023-07-20T14:40:31;13.98;;;6.93;;
80225;SDS011;69538;42.000;21.452;2023-07-20T14:42:58;13.68;;;6.93;;
80225;SDS011;69538;42.000;21.452;2023-07-20T14:45:27;16.85;;;6.97;;
80225;SDS011;69538;42.000;21.452;2023-07-20T14:47:53;18.85;;;6.72;;
80225;SDS011;69538;42.000;21.452;2023-07-20T14:50:19;16.38;;;7.10;;
80225;SDS011;69538;42.000;21.452;2023-07-20T14:52:46;21.75;;;8.02;;
80225;SDS011;69538;42.000;21.452;2023-07-20T14:55:12;21.02;;;6.75;;
80225;SDS011;69538;42.000;21.452;2023-07-20T14:57:39;19.23;;;6.68;;
80225;SDS011;69538;42.000;21.452;2023-07-20T15:00:05;15.98;;;6.20;;
80225;SDS011;69538;42.000;21.452;2023-07-20T15:02:37;16.17;;;6.47;;
80225;SDS011;69538;42.000;21.452;2023-07-20T15:05:07;15.20;;;7.07;;